sensor_id;sensor_type;location;lat;lon;timestamp;P1;durP1;ratioP1;P2;durP2;ratioP2
19739;SDS011;10027;51.066;13.768;2024-01-15T00:00:32;8.33;;;4.33;;
19739;SDS011;10027;51.066;13.768;2024-01-15T00:02:59;8.87;;;4.30;;
19739;SDS011;10027;51.066;13.768;2024-01-15T00:05:26;8.00;;;4.13;;
19739;SDS011;10027;51.066;13.768;2024-01-15T00:07:53;10.10;;;4.40;;
19739;SDS011;10027;51.066;13.768;2024-01-15T00:10:20;7.17;;;4.10;;
19739;SDS011;10027;51.066;13.768;2024-01-15T00:12:47;8.93;;;4.40;;
19739;SDS011;10027;51.066;13.768;2024-01-15T00:15:15;10.10;;;4.60;;
19739;SDS011;10027;51.066;13.768;2024-01-15T00:17:43;7.87;;;4.27;;
19739;SDS011;10027;51.066;13.768;2024-01-15T00:20:11;8.60;;;4.43;;
19739;SDS011;10027;51.066;13.768;2024-01-15T00:22:39;8.43;;;3.93;;
19739;SDS011;10027;51.066;13.768;2024-01-15T00:25:06;7.63;;;3.77;;
19739;SDS011;10027;51.066;13.768;2024-01-15T00:27:34;7.57;;;4.10;;
19739;SDS011;10027;51.066;13.768;2024-01-15T00:30:01;8.70;;;4.20;;
19739;SDS011;10027;51.066;13.768;2024-01-15T00:32:29;7.77;;;3.70;;
19739;SDS011;10027;51.066;13.768;2024-01-15T00:34:56;8.03;;;3.70;;
19739;SDS011;10027;51.066;13.768;2024-01-15T00:37:23;7.80;;;3.90;;
19739;SDS011;10027;51.066;13.768;2024-01-15T00:39:50;12.60;;;4.10;;
19739;SDS011;10027;51.066;13.768;2024-01-15T00:42:18;6.60;;;3.90;;
19739;SDS011;10027;51.066;13.768;2024-01-15T00:44:46;9.67;;;3.67;;
19739;SDS011;10027;51.066;13.768;2024-01-15T00:47:13;9.90;;;4.17;;
19739;SDS011;10027;51.066;13.768;2024-01-15T00:49:40;10.17;;;4.17;;
19739;SDS011;10027;51.066;13.768;2024-01-15T00:52:07;7.93;;;3.97;;
19739;SDS011;10027;51.066;13.768;2024-01-15T00:54:34;7.97;;;4.40;;
19739;SDS011;10027;51.066;13.768;2024-01-15T00:57:02;9.20;;;4.23;;
19739;SDS011;10027;51.066;13.768;2024-01-15T00:59:29;8.97;;;3.80;;
19739;SDS011;10027;51.066;13.768;2024-01-15T01:01:56;7.77;;;4.23;;
19739;SDS011;10027;51.066;13.768;2024-01-15T01:04:23;8.03;;;4.10;;
19739;SDS011;10027;51.066;13.768;2024-01-15T01:06:50;8.43;;;4.20;;
19739;SDS011;10027;51.066;13.768;2024-01-15T01:09:18;10.00;;;4.40;;
19739;SDS011;10027;51.066;13.768;2024-01-15T01:11:45;8.77;;;4.20;;
19739;SDS011;10027;51.066;13.768;2024-01-15T01:14:12;8.77;;;3.97;;
19739;SDS011;10027;51.066;13.768;2024-01-15T01:16:39;11.13;;;4.10;;
19739;SDS011;10027;51.066;13.768;2024-01-15T01:19:06;6.77;;;3.77;;
19739;SDS011;10027;51.066;13.768;2024-01-15T01:21:34;10.37;;;4.13;;
19739;SDS011;10027;51.066;13.768;2024-01-15T01:24:01;7.87;;;3.70;;
19739;SDS011;10027;51.066;13.768;2024-01-15T01:26:29;8.00;;;4.00;;
19739;SDS011;10027;51.066;13.768;2024-01-15T01:28:56;6.53;;;3.70;;
19739;SDS011;10027;51.066;13.768;2024-01-15T01:31:23;8.70;;;4.20;;
19739;SDS011;10027;51.066;13.768;2024-01-15T01:33:51;10.37;;;4.33;;
19739;SDS011;10027;51.066;13.768;2024-01-15T01:36:18;9.93;;;4.30;;
19739;SDS011;10027;51.066;13.768;2024-01-15T01:38:45;8.87;;;4.17;;
19739;SDS011;10027;51.066;13.768;2024-01-15T01:41:12;7.70;;;4.27;;
19739;SDS011;10027;51.066;13.768;2024-01-15T01:43:39;7.87;;;4.00;;
19739;SDS011;10027;51.066;13.768;2024-01-15T01:46:07;10.63;;;4.40;;
19739;SDS011;10027;51.066;13.768;2024-01-15T01:48:34;9.07;;;4.40;;
19739;SDS011;10027;51.066;13.768;2024-01-15T01:51:03;9.00;;;4.63;;
19739;SDS011;10027;51.066;13.768;2024-01-15T01:53:31;9.90;;;4.30;;
19739;SDS011;10027;51.066;13.768;2024-01-15T01:55:58;9.47;;;4.60;;
19739;SDS011;10027;51.066;13.768;2024-01-15T01:58:27;9.53;;;4.70;;
19739;SDS011;10027;51.066;13.768;2024-01-15T02:00:54;10.33;;;4.40;;
19739;SDS011;10027;51.066;13.768;2024-01-15T02:03:22;9.37;;;4.33;;
19739;SDS011;10027;51.066;13.768;2024-01-15T02:05:49;10.50;;;4.60;;
19739;SDS011;10027;51.066;13.768;2024-01-15T02:08:17;11.80;;;4.53;;
19739;SDS011;10027;51.066;13.768;2024-01-15T02:10:44;10.70;;;4.20;;
19739;SDS011;10027;51.066;13.768;2024-01-15T02:13:11;9.87;;;4.33;;
19739;SDS011;10027;51.066;13.768;2024-01-15T02:15:39;8.87;;;3.93;;
19739;SDS011;10027;51.066;13.768;2024-01-15T02:18:07;6.90;;;3.77;;
19739;SDS011;10027;51.066;13.768;2024-01-15T02:20:34;7.30;;;4.27;;
19739;SDS011;10027;51.066;13.768;2024-01-15T02:23:06;7.83;;;4.10;;
19739;SDS011;10027;51.066;13.768;2024-01-15T02:25:35;9.87;;;4.47;;
19739;SDS011;10027;51.066;13.768;2024-01-15T02:28:03;10.23;;;4.40;;
19739;SDS011;10027;51.066;13.768;2024-01-15T02:30:30;11.27;;;4.80;;
19739;SDS011;10027;51.066;13.768;2024-01-15T02:32:58;10.67;;;4.10;;
19739;SDS011;10027;51.066;13.768;2024-01-15T02:35:25;9.37;;;4.20;;
19739;SDS011;10027;51.066;13.768;2024-01-15T02:37:53;9.80;;;4.70;;
19739;SDS011;10027;51.066;13.768;2024-01-15T02:40:20;8.80;;;4.37;;
19739;SDS011;10027;51.066;13.768;2024-01-15T02:42:47;9.77;;;4.83;;
19739;SDS011;10027;51.066;13.768;2024-01-15T02:45:14;8.90;;;4.60;;
19739;SDS011;10027;51.066;13.768;2024-01-15T02:47:41;10.33;;;4.60;;
19739;SDS011;10027;51.066;13.768;2024-01-15T02:50:08;10.20;;;4.53;;
19739;SDS011;10027;51.066;13.768;2024-01-15T02:52:36;12.87;;;5.30;;
19739;SDS011;10027;51.066;13.768;2024-01-15T02:55:03;11.17;;;5.00;;
19739;SDS011;10027;51.066;13.768;2024-01-15T02:57:30;7.87;;;4.30;;
19739;SDS011;10027;51.066;13.768;2024-01-15T02:59:58;10.27;;;4.63;;
19739;SDS011;10027;51.066;13.768;2024-01-15T03:02:25;10.43;;;4.90;;
19739;SDS011;10027;51.066;13.768;2024-01-15T03:04:52;11.30;;;4.90;;
19739;SDS011;10027;51.066;13.768;2024-01-15T03:07:19;9.93;;;4.57;;
19739;SDS011;10027;51.066;13.768;2024-01-15T03:09:46;8.80;;;4.40;;
19739;SDS011;10027;51.066;13.768;2024-01-15T03:12:13;12.10;;;4.80;;
19739;SDS011;10027;51.066;13.768;2024-01-15T03:14:41;14.10;;;4.93;;
19739;SDS011;10027;51.066;13.768;2024-01-15T03:17:08;11.43;;;5.20;;
19739;SDS011;10027;51.066;13.768;2024-01-15T03:19:36;11.40;;;5.00;;
19739;SDS011;10027;51.066;13.768;2024-01-15T03:22:03;11.43;;;4.93;;
19739;SDS011;10027;51.066;13.768;2024-01-15T03:24:31;9.93;;;4.80;;
19739;SDS011;10027;51.066;13.768;2024-01-15T03:26:58;11.37;;;5.40;;
19739;SDS011;10027;51.066;13.768;2024-01-15T03:29:25;11.63;;;5.00;;
19739;SDS011;10027;51.066;13.768;2024-01-15T03:31:53;8.17;;;4.73;;
19739;SDS011;10027;51.066;13.768;2024-01-15T03:34:20;13.03;;;5.23;;
19739;SDS011;10027;51.066;13.768;2024-01-15T03:36:47;12.93;;;4.93;;
19739;SDS011;10027;51.066;13.768;2024-01-15T03:39:15;12.67;;;4.80;;
19739;SDS011;10027;51.066;13.768;2024-01-15T03:41:42;11.30;;;5.00;;
19739;SDS011;10027;51.066;13.768;2024-01-15T03:44:09;11.50;;;5.20;;
19739;SDS011;10027;51.066;13.768;2024-01-15T03:46:36;13.87;;;5.63;;
19739;SDS011;10027;51.066;13.768;2024-01-15T03:49:03;12.47;;;5.27;;
19739;SDS011;10027;51.066;13.768;2024-01-15T03:51:30;11.30;;;4.90;;
19739;SDS011;10027;51.066;13.768;2024-01-15T03:53:58;11.63;;;5.23;;
19739;SDS011;10027;51.066;13.768;2024-01-15T03:56:25;11.30;;;5.10;;
19739;SDS011;10027;51.066;13.768;2024-01-15T03:58:52;14.60;;;5.87;;
19739;SDS011;10027;51.066;13.768;2024-01-15T04:01:19;16.23;;;5.87;;
19739;SDS011;10027;51.066;13.768;2024-01-15T04:03:47;12.20;;;4.90;;
19739;SDS011;10027;51.066;13.768;2024-01-15T04:06:14;12.40;;;5.67;;
19739;SDS011;10027;51.066;13.768;2024-01-15T04:08:41;13.63;;;5.70;;
19739;SDS011;10027;51.066;13.768;2024-01-15T04:11:08;11.10;;;5.17;;
19739;SDS011;10027;51.066;13.768;2024-01-15T04:13:35;15.10;;;5.37;;
19739;SDS011;10027;51.066;13.768;2024-01-15T04:16:05;15.53;;;5.80;;
19739;SDS011;10027;51.066;13.768;2024-01-15T04:18:33;11.50;;;4.83;;
19739;SDS011;10027;51.066;13.768;2024-01-15T04:21:00;10.00;;;5.10;;
19739;SDS011;10027;51.066;13.768;2024-01-15T04:23:27;13.57;;;5.37;;
19739;SDS011;10027;51.066;13.768;2024-01-15T04:25:54;12.57;;;5.40;;
19739;SDS011;10027;51.066;13.768;2024-01-15T04:28:21;10.67;;;4.80;;
19739;SDS011;10027;51.066;13.768;2024-01-15T04:30:48;12.43;;;5.03;;
19739;SDS011;10027;51.066;13.768;2024-01-15T04:33:16;10.37;;;5.07;;
19739;SDS011;10027;51.066;13.768;2024-01-15T04:35:43;10.60;;;5.53;;
19739;SDS011;10027;51.066;13.768;2024-01-15T04:38:10;11.70;;;4.97;;
19739;SDS011;10027;51.066;13.768;2024-01-15T04:40:37;14.00;;;5.90;;
19739;SDS011;10027;51.066;13.768;2024-01-15T04:43:04;10.90;;;5.10;;
19739;SDS011;10027;51.066;13.768;2024-01-15T04:45:32;11.57;;;5.17;;
19739;SDS011;10027;51.066;13.768;2024-01-15T04:47:59;11.07;;;4.60;;
19739;SDS011;10027;51.066;13.768;2024-01-15T04:50:26;11.23;;;5.20;;
19739;SDS011;10027;51.066;13.768;2024-01-15T04:52:53;10.67;;;4.93;;
19739;SDS011;10027;51.066;13.768;2024-01-15T04:55:20;10.63;;;4.63;;
19739;SDS011;10027;51.066;13.768;2024-01-15T04:57:47;11.20;;;5.27;;
19739;SDS011;10027;51.066;13.768;2024-01-15T05:00:15;12.47;;;5.53;;
19739;SDS011;10027;51.066;13.768;2024-01-15T05:02:42;12.43;;;5.17;;
19739;SDS011;10027;51.066;13.768;2024-01-15T05:05:09;13.00;;;5.13;;
19739;SDS011;10027;51.066;13.768;2024-01-15T05:07:36;11.03;;;5.00;;
19739;SDS011;10027;51.066;13.768;2024-01-15T05:10:03;12.50;;;5.03;;
19739;SDS011;10027;51.066;13.768;2024-01-15T05:12:31;10.90;;;4.80;;
19739;SDS011;10027;51.066;13.768;2024-01-15T05:14:58;10.33;;;4.50;;
19739;SDS011;10027;51.066;13.768;2024-01-15T05:17:25;11.57;;;5.13;;
19739;SDS011;10027;51.066;13.768;2024-01-15T05:19:52;12.33;;;5.00;;
19739;SDS011;10027;51.066;13.768;2024-01-15T05:22:20;11.20;;;4.90;;
19739;SDS011;10027;51.066;13.768;2024-01-15T05:24:47;10.33;;;4.63;;
19739;SDS011;10027;51.066;13.768;2024-01-15T05:27:14;10.37;;;5.07;;
19739;SDS011;10027;51.066;13.768;2024-01-15T05:29:41;10.30;;;4.50;;
19739;SDS011;10027;51.066;13.768;2024-01-15T05:32:08;8.70;;;4.53;;
19739;SDS011;10027;51.066;13.768;2024-01-15T05:34:36;9.40;;;4.47;;
19739;SDS011;10027;51.066;13.768;2024-01-15T05:37:03;10.87;;;4.40;;
19739;SDS011;10027;51.066;13.768;2024-01-15T05:39:30;11.80;;;4.80;;
19739;SDS011;10027;51.066;13.768;2024-01-15T05:41:58;11.50;;;4.80;;
19739;SDS011;10027;51.066;13.768;2024-01-15T05:44:26;13.30;;;5.50;;
19739;SDS011;10027;51.066;13.768;2024-01-15T05:46:53;14.87;;;4.90;;
19739;SDS011;10027;51.066;13.768;2024-01-15T05:49:20;10.77;;;4.80;;
19739;SDS011;10027;51.066;13.768;2024-01-15T05:51:48;13.30;;;5.10;;
19739;SDS011;10027;51.066;13.768;2024-01-15T05:54:18;9.60;;;4.27;;
19739;SDS011;10027;51.066;13.768;2024-01-15T05:56:46;11.30;;;4.67;;
19739;SDS011;10027;51.066;13.768;2024-01-15T05:59:13;9.67;;;4.07;;
19739;SDS011;10027;51.066;13.768;2024-01-15T06:01:41;12.37;;;5.20;;
19739;SDS011;10027;51.066;13.768;2024-01-15T06:04:09;11.13;;;4.80;;
19739;SDS011;10027;51.066;13.768;2024-01-15T06:06:36;11.80;;;4.60;;
19739;SDS011;10027;51.066;13.768;2024-01-15T06:09:04;12.77;;;4.73;;
19739;SDS011;10027;51.066;13.768;2024-01-15T06:11:35;7.87;;;4.17;;
19739;SDS011;10027;51.066;13.768;2024-01-15T06:14:02;11.20;;;4.60;;
19739;SDS011;10027;51.066;13.768;2024-01-15T06:16:29;10.13;;;4.70;;
19739;SDS011;10027;51.066;13.768;2024-01-15T06:18:56;9.57;;;4.50;;
19739;SDS011;10027;51.066;13.768;2024-01-15T06:21:24;10.40;;;4.47;;
19739;SDS011;10027;51.066;13.768;2024-01-15T06:23:51;12.50;;;4.03;;
19739;SDS011;10027;51.066;13.768;2024-01-15T06:26:18;10.83;;;4.47;;
19739;SDS011;10027;51.066;13.768;2024-01-15T06:28:46;10.30;;;4.40;;
19739;SDS011;10027;51.066;13.768;2024-01-15T06:31:13;12.37;;;4.10;;
19739;SDS011;10027;51.066;13.768;2024-01-15T06:33:40;12.50;;;4.40;;
19739;SDS011;10027;51.066;13.768;2024-01-15T06:36:07;9.77;;;4.40;;
19739;SDS011;10027;51.066;13.768;2024-01-15T06:38:35;7.30;;;3.97;;
19739;SDS011;10027;51.066;13.768;2024-01-15T06:41:02;9.93;;;4.13;;
19739;SDS011;10027;51.066;13.768;2024-01-15T06:43:29;8.67;;;4.03;;
19739;SDS011;10027;51.066;13.768;2024-01-15T06:45:57;8.50;;;3.77;;
19739;SDS011;10027;51.066;13.768;2024-01-15T06:48:26;10.67;;;4.20;;
19739;SDS011;10027;51.066;13.768;2024-01-15T06:50:53;8.53;;;4.17;;
19739;SDS011;10027;51.066;13.768;2024-01-15T06:53:21;9.30;;;3.90;;
19739;SDS011;10027;51.066;13.768;2024-01-15T06:55:48;9.13;;;3.93;;
19739;SDS011;10027;51.066;13.768;2024-01-15T06:58:17;8.03;;;3.70;;
19739;SDS011;10027;51.066;13.768;2024-01-15T07:00:44;6.70;;;3.77;;
19739;SDS011;10027;51.066;13.768;2024-01-15T07:03:11;8.23;;;3.27;;
19739;SDS011;10027;51.066;13.768;2024-01-15T07:05:39;10.27;;;3.67;;
19739;SDS011;10027;51.066;13.768;2024-01-15T07:08:06;7.70;;;3.83;;
19739;SDS011;10027;51.066;13.768;2024-01-15T07:10:33;9.40;;;3.80;;
19739;SDS011;10027;51.066;13.768;2024-01-15T07:13:03;7.77;;;3.70;;
19739;SDS011;10027;51.066;13.768;2024-01-15T07:15:31;6.90;;;3.60;;
19739;SDS011;10027;51.066;13.768;2024-01-15T07:17:59;9.73;;;3.90;;
19739;SDS011;10027;51.066;13.768;2024-01-15T07:20:26;9.93;;;3.70;;
19739;SDS011;10027;51.066;13.768;2024-01-15T07:22:53;8.73;;;3.90;;
19739;SDS011;10027;51.066;13.768;2024-01-15T07:25:20;7.93;;;3.20;;
19739;SDS011;10027;51.066;13.768;2024-01-15T07:27:47;8.97;;;3.50;;
19739;SDS011;10027;51.066;13.768;2024-01-15T07:30:15;10.73;;;3.73;;
19739;SDS011;10027;51.066;13.768;2024-01-15T07:32:42;8.50;;;3.50;;
19739;SDS011;10027;51.066;13.768;2024-01-15T07:35:09;7.87;;;3.57;;
19739;SDS011;10027;51.066;13.768;2024-01-15T07:37:37;10.20;;;4.07;;
19739;SDS011;10027;51.066;13.768;2024-01-15T07:40:04;7.73;;;3.93;;
19739;SDS011;10027;51.066;13.768;2024-01-15T07:42:33;10.37;;;4.00;;
19739;SDS011;10027;51.066;13.768;2024-01-15T07:45:00;8.07;;;3.50;;
19739;SDS011;10027;51.066;13.768;2024-01-15T07:47:27;7.80;;;4.07;;
19739;SDS011;10027;51.066;13.768;2024-01-15T07:49:55;10.60;;;4.27;;
19739;SDS011;10027;51.066;13.768;2024-01-15T07:52:25;9.43;;;4.30;;
19739;SDS011;10027;51.066;13.768;2024-01-15T07:54:52;7.20;;;3.70;;
19739;SDS011;10027;51.066;13.768;2024-01-15T07:57:19;7.90;;;4.00;;
19739;SDS011;10027;51.066;13.768;2024-01-15T07:59:46;6.00;;;3.50;;
19739;SDS011;10027;51.066;13.768;2024-01-15T08:02:14;6.43;;;3.47;;
19739;SDS011;10027;51.066;13.768;2024-01-15T08:04:41;8.77;;;3.30;;
19739;SDS011;10027;51.066;13.768;2024-01-15T08:07:08;7.27;;;3.47;;
19739;SDS011;10027;51.066;13.768;2024-01-15T08:09:36;7.63;;;3.43;;
19739;SDS011;10027;51.066;13.768;2024-01-15T08:12:03;8.20;;;4.10;;
19739;SDS011;10027;51.066;13.768;2024-01-15T08:14:32;7.83;;;3.93;;
19739;SDS011;10027;51.066;13.768;2024-01-15T08:16:59;10.77;;;3.97;;
19739;SDS011;10027;51.066;13.768;2024-01-15T08:19:27;7.23;;;3.67;;
19739;SDS011;10027;51.066;13.768;2024-01-15T08:21:54;10.17;;;4.20;;
19739;SDS011;10027;51.066;13.768;2024-01-15T08:24:22;9.00;;;3.90;;
19739;SDS011;10027;51.066;13.768;2024-01-15T08:26:49;9.13;;;3.90;;
19739;SDS011;10027;51.066;13.768;2024-01-15T08:29:16;8.27;;;3.67;;
19739;SDS011;10027;51.066;13.768;2024-01-15T08:31:45;7.53;;;3.70;;
19739;SDS011;10027;51.066;13.768;2024-01-15T08:34:12;9.87;;;3.83;;
19739;SDS011;10027;51.066;13.768;2024-01-15T08:36:39;11.57;;;4.00;;
19739;SDS011;10027;51.066;13.768;2024-01-15T08:39:07;6.80;;;3.57;;
19739;SDS011;10027;51.066;13.768;2024-01-15T08:41:35;7.33;;;3.37;;
19739;SDS011;10027;51.066;13.768;2024-01-15T08:44:02;7.07;;;3.80;;
19739;SDS011;10027;51.066;13.768;2024-01-15T08:46:30;9.33;;;4.00;;
19739;SDS011;10027;51.066;13.768;2024-01-15T08:48:57;6.47;;;3.60;;
19739;SDS011;10027;51.066;13.768;2024-01-15T08:51:24;6.60;;;3.33;;
19739;SDS011;10027;51.066;13.768;2024-01-15T08:53:51;8.70;;;3.37;;
19739;SDS011;10027;51.066;13.768;2024-01-15T08:56:19;8.13;;;3.70;;
19739;SDS011;10027;51.066;13.768;2024-01-15T08:58:46;11.87;;;3.73;;
19739;SDS011;10027;51.066;13.768;2024-01-15T09:01:13;7.63;;;3.57;;
19739;SDS011;10027;51.066;13.768;2024-01-15T09:03:40;8.03;;;3.50;;
19739;SDS011;10027;51.066;13.768;2024-01-15T09:06:11;7.07;;;3.77;;
19739;SDS011;10027;51.066;13.768;2024-01-15T09:08:38;9.70;;;3.37;;
19739;SDS011;10027;51.066;13.768;2024-01-15T09:11:05;14.53;;;3.73;;
19739;SDS011;10027;51.066;13.768;2024-01-15T09:13:32;10.93;;;3.57;;
19739;SDS011;10027;51.066;13.768;2024-01-15T09:15:59;6.37;;;3.13;;
19739;SDS011;10027;51.066;13.768;2024-01-15T09:18:27;7.50;;;3.50;;
19739;SDS011;10027;51.066;13.768;2024-01-15T09:20:54;7.67;;;3.30;;
19739;SDS011;10027;51.066;13.768;2024-01-15T09:23:22;7.70;;;3.30;;
19739;SDS011;10027;51.066;13.768;2024-01-15T09:25:49;6.40;;;3.43;;
19739;SDS011;10027;51.066;13.768;2024-01-15T09:28:18;6.00;;;3.07;;
19739;SDS011;10027;51.066;13.768;2024-01-15T09:30:45;7.43;;;3.47;;
19739;SDS011;10027;51.066;13.768;2024-01-15T09:33:13;5.37;;;3.13;;
19739;SDS011;10027;51.066;13.768;2024-01-15T09:35:40;6.67;;;3.67;;
19739;SDS011;10027;51.066;13.768;2024-01-15T09:38:08;6.83;;;3.17;;
19739;SDS011;10027;51.066;13.768;2024-01-15T09:40:35;6.80;;;3.37;;
19739;SDS011;10027;51.066;13.768;2024-01-15T09:43:05;7.27;;;3.43;;
19739;SDS011;10027;51.066;13.768;2024-01-15T09:45:32;8.80;;;4.23;;
19739;SDS011;10027;51.066;13.768;2024-01-15T09:47:59;7.37;;;4.00;;
19739;SDS011;10027;51.066;13.768;2024-01-15T09:50:26;5.70;;;3.60;;
19739;SDS011;10027;51.066;13.768;2024-01-15T09:52:54;6.23;;;3.20;;
19739;SDS011;10027;51.066;13.768;2024-01-15T09:55:23;6.37;;;3.50;;
19739;SDS011;10027;51.066;13.768;2024-01-15T09:57:50;7.17;;;3.10;;
19739;SDS011;10027;51.066;13.768;2024-01-15T10:00:18;6.93;;;3.40;;
19739;SDS011;10027;51.066;13.768;2024-01-15T10:02:45;9.13;;;3.53;;
19739;SDS011;10027;51.066;13.768;2024-01-15T10:05:13;8.27;;;3.43;;
19739;SDS011;10027;51.066;13.768;2024-01-15T10:07:40;7.50;;;3.33;;
19739;SDS011;10027;51.066;13.768;2024-01-15T10:10:08;7.73;;;3.33;;
19739;SDS011;10027;51.066;13.768;2024-01-15T10:12:35;5.80;;;3.43;;
19739;SDS011;10027;51.066;13.768;2024-01-15T10:15:03;6.80;;;3.40;;
19739;SDS011;10027;51.066;13.768;2024-01-15T10:17:30;7.03;;;3.80;;
19739;SDS011;10027;51.066;13.768;2024-01-15T10:19:57;7.53;;;4.00;;
19739;SDS011;10027;51.066;13.768;2024-01-15T10:22:25;7.13;;;3.50;;
19739;SDS011;10027;51.066;13.768;2024-01-15T10:24:52;9.87;;;4.17;;
19739;SDS011;10027;51.066;13.768;2024-01-15T10:27:20;8.43;;;3.80;;
19739;SDS011;10027;51.066;13.768;2024-01-15T10:29:47;8.40;;;3.97;;
19739;SDS011;10027;51.066;13.768;2024-01-15T10:32:14;7.40;;;4.00;;
19739;SDS011;10027;51.066;13.768;2024-01-15T10:34:41;5.43;;;3.57;;
19739;SDS011;10027;51.066;13.768;2024-01-15T10:37:12;6.87;;;3.40;;
19739;SDS011;10027;51.066;13.768;2024-01-15T10:39:39;6.67;;;3.20;;
19739;SDS011;10027;51.066;13.768;2024-01-15T10:42:06;8.20;;;3.63;;
19739;SDS011;10027;51.066;13.768;2024-01-15T10:44:34;7.80;;;3.50;;
19739;SDS011;10027;51.066;13.768;2024-01-15T10:47:01;6.40;;;3.40;;
19739;SDS011;10027;51.066;13.768;2024-01-15T10:49:28;7.10;;;3.30;;
19739;SDS011;10027;51.066;13.768;2024-01-15T10:52:00;6.83;;;2.93;;
19739;SDS011;10027;51.066;13.768;2024-01-15T10:54:27;5.93;;;3.37;;
19739;SDS011;10027;51.066;13.768;2024-01-15T10:56:58;6.57;;;3.43;;
19739;SDS011;10027;51.066;13.768;2024-01-15T10:59:25;6.93;;;3.20;;
19739;SDS011;10027;51.066;13.768;2024-01-15T11:01:52;5.67;;;3.30;;
19739;SDS011;10027;51.066;13.768;2024-01-15T11:04:21;6.70;;;3.30;;
19739;SDS011;10027;51.066;13.768;2024-01-15T11:06:55;8.23;;;3.03;;
19739;SDS011;10027;51.066;13.768;2024-01-15T11:09:23;8.63;;;3.50;;
19739;SDS011;10027;51.066;13.768;2024-01-15T11:11:52;12.20;;;3.57;;
19739;SDS011;10027;51.066;13.768;2024-01-15T11:14:42;7.00;;;3.53;;
19739;SDS011;10027;51.066;13.768;2024-01-15T11:17:10;7.03;;;3.33;;
19739;SDS011;10027;51.066;13.768;2024-01-15T11:22:08;7.07;;;3.27;;
19739;SDS011;10027;51.066;13.768;2024-01-15T11:24:39;7.57;;;3.70;;
19739;SDS011;10027;51.066;13.768;2024-01-15T11:27:07;6.70;;;3.43;;
19739;SDS011;10027;51.066;13.768;2024-01-15T11:29:37;6.97;;;3.37;;
19739;SDS011;10027;51.066;13.768;2024-01-15T11:32:05;6.93;;;3.57;;
19739;SDS011;10027;51.066;13.768;2024-01-15T11:37:19;6.73;;;3.60;;
19739;SDS011;10027;51.066;13.768;2024-01-15T11:39:47;7.67;;;3.63;;
19739;SDS011;10027;51.066;13.768;2024-01-15T11:42:14;7.47;;;3.67;;
19739;SDS011;10027;51.066;13.768;2024-01-15T11:44:42;8.60;;;3.60;;
19739;SDS011;10027;51.066;13.768;2024-01-15T11:47:11;6.10;;;3.50;;
19739;SDS011;10027;51.066;13.768;2024-01-15T11:52:10;7.37;;;3.40;;
19739;SDS011;10027;51.066;13.768;2024-01-15T11:54:38;7.90;;;3.40;;
19739;SDS011;10027;51.066;13.768;2024-01-15T11:57:09;7.00;;;3.73;;
19739;SDS011;10027;51.066;13.768;2024-01-15T11:59:36;5.03;;;3.23;;
19739;SDS011;10027;51.066;13.768;2024-01-15T12:02:04;7.27;;;3.37;;
19739;SDS011;10027;51.066;13.768;2024-01-15T12:04:31;5.10;;;3.20;;
19739;SDS011;10027;51.066;13.768;2024-01-15T12:06:58;7.90;;;3.53;;
19739;SDS011;10027;51.066;13.768;2024-01-15T12:09:26;8.27;;;3.40;;
19739;SDS011;10027;51.066;13.768;2024-01-15T12:11:56;6.40;;;3.27;;
19739;SDS011;10027;51.066;13.768;2024-01-15T12:14:25;7.67;;;3.17;;
19739;SDS011;10027;51.066;13.768;2024-01-15T12:16:55;7.17;;;3.13;;
19739;SDS011;10027;51.066;13.768;2024-01-15T12:19:22;9.33;;;3.43;;
19739;SDS011;10027;51.066;13.768;2024-01-15T12:21:52;6.13;;;3.47;;
19739;SDS011;10027;51.066;13.768;2024-01-15T12:24:20;7.60;;;4.00;;
19739;SDS011;10027;51.066;13.768;2024-01-15T12:26:47;7.20;;;3.20;;
19739;SDS011;10027;51.066;13.768;2024-01-15T12:29:14;7.80;;;3.50;;
19739;SDS011;10027;51.066;13.768;2024-01-15T12:31:46;7.57;;;3.90;;
19739;SDS011;10027;51.066;13.768;2024-01-15T12:34:13;7.73;;;3.80;;
19739;SDS011;10027;51.066;13.768;2024-01-15T12:36:41;8.63;;;3.83;;
19739;SDS011;10027;51.066;13.768;2024-01-15T12:39:11;6.37;;;3.60;;
19739;SDS011;10027;51.066;13.768;2024-01-15T12:41:39;6.57;;;3.70;;
19739;SDS011;10027;51.066;13.768;2024-01-15T12:44:06;8.30;;;3.77;;
19739;SDS011;10027;51.066;13.768;2024-01-15T12:46:34;7.10;;;3.53;;
19739;SDS011;10027;51.066;13.768;2024-01-15T12:49:03;8.37;;;3.30;;
19739;SDS011;10027;51.066;13.768;2024-01-15T12:51:32;7.00;;;3.73;;
19739;SDS011;10027;51.066;13.768;2024-01-15T12:54:01;7.43;;;3.37;;
19739;SDS011;10027;51.066;13.768;2024-01-15T12:56:28;5.50;;;3.10;;
19739;SDS011;10027;51.066;13.768;2024-01-15T12:58:55;7.53;;;3.50;;
19739;SDS011;10027;51.066;13.768;2024-01-15T13:01:22;7.07;;;3.63;;
19739;SDS011;10027;51.066;13.768;2024-01-15T13:03:50;6.67;;;3.80;;
19739;SDS011;10027;51.066;13.768;2024-01-15T13:06:17;5.50;;;3.03;;
19739;SDS011;10027;51.066;13.768;2024-01-15T13:08:44;7.07;;;3.47;;
19739;SDS011;10027;51.066;13.768;2024-01-15T13:11:12;7.33;;;3.37;;
19739;SDS011;10027;51.066;13.768;2024-01-15T13:13:39;8.13;;;3.60;;
19739;SDS011;10027;51.066;13.768;2024-01-15T13:16:07;6.57;;;3.43;;
19739;SDS011;10027;51.066;13.768;2024-01-15T13:18:35;8.43;;;3.97;;
19739;SDS011;10027;51.066;13.768;2024-01-15T13:21:02;7.87;;;4.07;;
19739;SDS011;10027;51.066;13.768;2024-01-15T13:23:30;7.23;;;3.50;;
19739;SDS011;10027;51.066;13.768;2024-01-15T13:25:58;7.20;;;3.80;;
19739;SDS011;10027;51.066;13.768;2024-01-15T13:28:25;6.87;;;3.20;;
19739;SDS011;10027;51.066;13.768;2024-01-15T13:30:52;8.43;;;3.80;;
19739;SDS011;10027;51.066;13.768;2024-01-15T13:33:19;6.57;;;3.60;;
19739;SDS011;10027;51.066;13.768;2024-01-15T13:35:47;7.27;;;3.37;;
19739;SDS011;10027;51.066;13.768;2024-01-15T13:38:16;7.03;;;3.37;;
19739;SDS011;10027;51.066;13.768;2024-01-15T13:40:43;7.30;;;4.07;;
19739;SDS011;10027;51.066;13.768;2024-01-15T13:43:13;5.57;;;3.27;;
19739;SDS011;10027;51.066;13.768;2024-01-15T13:45:41;7.30;;;3.80;;
19739;SDS011;10027;51.066;13.768;2024-01-15T13:48:09;6.43;;;3.53;;
19739;SDS011;10027;51.066;13.768;2024-01-15T13:50:36;6.80;;;3.30;;
19739;SDS011;10027;51.066;13.768;2024-01-15T13:53:04;8.53;;;3.83;;
19739;SDS011;10027;51.066;13.768;2024-01-15T13:55:31;9.73;;;4.03;;
19739;SDS011;10027;51.066;13.768;2024-01-15T13:57:58;7.53;;;3.77;;
19739;SDS011;10027;51.066;13.768;2024-01-15T14:00:26;19.63;;;3.90;;
19739;SDS011;10027;51.066;13.768;2024-01-15T14:02:53;9.53;;;3.70;;
19739;SDS011;10027;51.066;13.768;2024-01-15T14:05:20;16.00;;;3.93;;
19739;SDS011;10027;51.066;13.768;2024-01-15T14:07:47;8.70;;;3.30;;
19739;SDS011;10027;51.066;13.768;2024-01-15T14:10:15;7.37;;;3.57;;
19739;SDS011;10027;51.066;13.768;2024-01-15T14:12:42;7.57;;;3.20;;
19739;SDS011;10027;51.066;13.768;2024-01-15T14:15:10;6.33;;;3.50;;
19739;SDS011;10027;51.066;13.768;2024-01-15T14:17:37;10.23;;;3.70;;
19739;SDS011;10027;51.066;13.768;2024-01-15T14:20:05;7.57;;;3.23;;
19739;SDS011;10027;51.066;13.768;2024-01-15T14:22:32;8.10;;;3.57;;
19739;SDS011;10027;51.066;13.768;2024-01-15T14:24:59;8.03;;;3.50;;
19739;SDS011;10027;51.066;13.768;2024-01-15T14:27:27;7.17;;;3.40;;
19739;SDS011;10027;51.066;13.768;2024-01-15T14:29:54;7.70;;;3.37;;
19739;SDS011;10027;51.066;13.768;2024-01-15T14:32:21;7.90;;;3.60;;
19739;SDS011;10027;51.066;13.768;2024-01-15T14:34:48;9.63;;;3.70;;
19739;SDS011;10027;51.066;13.768;2024-01-15T14:37:15;7.23;;;3.40;;
19739;SDS011;10027;51.066;13.768;2024-01-15T14:39:43;6.93;;;3.20;;